Basigo de Baguio, Spain

11:09 AM CEST 2017 maiatza ren 26 an (GMT +0200)
Mungia | | Change Station

Elev -10000 ft 43.36 °N, 2.85 °W | Updated 13 minutes ago

Oskarbia
Oskarbia
83.7 °F
Feels Like 83 °F
N
1.9
Haizea Aldagarria Haizea from EIE
Gusts 3.7 mph

Gaur
High -- | Low -- °F
--% Chance of Precip.
Yesterday
High -- | Low -- °F
Precip. -- in
Presioa 29.86 in
Ikusgaitasuna -9999.0 Miliak
Clouds
Beroaren maila 83 °F
Ihintzaren maila 59 °F
Afoinua 43%
Rainfall 0.00 in
Snow Depth Not available.
6:37 AM 9:40 PM
New, 0% visible
METAR LEBB 260900Z 17005KT 120V220 CAVOK 29/17 Q1011 NOSIG
Presioa 29.86 in
Ikusgaitasuna -9999.0 Miliak
Clouds
Beroaren maila 83 °F
Ihintzaren maila 59 °F
Afoinua 43%
Rainfall 0.00 in
Snow Depth Not available.
6:37 AM 9:40 PM
New, 0% visible
METAR LEBB 260900Z 17005KT 120V220 CAVOK 29/17 Q1011 NOSIG

Get Severe Weather Alerts

Thanks for signing up!

Be on the lookout for a verification email in your inbox.

You'll start receiving the daily forecast at 6 AM.

×

10-Day Weather Forecast

×

Almanac

Astronomy

May. 26, 2017 Rise Set
Actual Time
Civil Twilight
Nautical Twilight
Astronomical Twilight
Moon
Length Of Visible Light
Length of Day
Tomorrow will be .
, % of the Moon is Illuminated

Today's Extremes

Country Highs Country Lows

Community

WunderPhotos

Category 6

Welcome to Category 6. This is the collective home for Weather Underground's featured writeups by Dr. Jeff Masters (right), Bob Henson (left), Chris Burt, and other regular contributors.

Nearby

Air Quality

  Air Quality AQ Index Pollutant
Not available.

Snow Depth

Station Depth Elevation

Earthquake Activity

City Distance Mag. Time & Date
Minimum magnitude displayed is 2.5.

Coastal Water Temperatures

Lekua Tenperatura

Stations

Nearby Weather Stations

Station Location Temp Izozki haizeak Ihintzaren maila Afoinua Haizea Precip. Elev Eguneratuta Type